Decoded Metar for KPHP (PHILIP in SD, USA) (IATA:PHP) | Meteo·Mobile Aviation Weather
aviador You're here:

KPHP Decoded Metar

PHILIP in SD, USA
Report Time2019-01-17 21:55:00
UTC Time2019-01-17 22:57:01
Flight Rules ifr IFR
Wind080° at 09 kt
W.Decomp.*RWY 05: 8.5 kt HW 2.9 kt RCW
RWY 12: 5.7 kt HW 7 kt LCW
W.Rank080° ranks 11
Current wind is above 080° avg. (7.4)
Visibility9999 m
Phenomena:N/A
Clouds:Overcast 006 Hf
Expected CloudBase > 400 ft AGL from Temp-Dew spread
Ceiling600 ft
Temp-6°C (ISA -17)
Dew Point-7°C (93% RH)
AAT-12.0°C
QNH1017 hPa
Density Alt79 ft
Elevation2,205 ft
Report Wrong Elevation
Raw Report
KPHP 172155Z AUTO 08009KT 10SM OVC006 M06/M07 A3003 RMK AO2 SLP199
T10611072=

Extra information for KPHP:More info

Metar Taf Metar & Taf Last 4 Metars F.Rules Stats Wind Profile Meteogram Temp Stats Airport Information Weather charts Add Link Nearby VenuesMetar ALERT Operation Metar Decoded Social comments

AIRNAV info for KPHP